Polaris, Montana
Current Conditions -  °F | °C
As of 1:53 PM on Monday 22 Dec 2014 (Local Time) from KDLN Reporting Station
Scattered Clouds Scattered Clouds  
Wind Chill: 24°   Ceiling: Unl
Heat Index: 33°   Visibility: 10mi
Dew Point: 22°   Wind: 13mph
Humidity: 64%   Direction: 280°W
Pressure: 29.96"   Gusts: NA
Location:  45.37°N, 113.12°W
Report Text: KDLN 222053Z AUTO 28011KT 10SM FEW070 SCT100 01/M06 A2996 RMK AO2 SLP163 60000 T00061056 53004
Loading
Personal Weather Stations






























Interactive Weather Map New forecast layout! Learn more

10-Day Weather Forecast

Advertisements
Track Severe Weather on mobile